KMQI

Details ICAO KMQI
Name DARE CO RGNL
Region United States
Timezone America/New_York (UTC-4.0)
Plans Departing 7
Arriving 30
Stats Elevation 14 ft / 4 m (AMSL)
Location 35.919044° -75.695427°
Runways 2
Magnetic Variation 11.010° W
Sunrise 2018-05-26 09:51:35 UTC / 2018-05-26 05:51:35 Local
Sunset 2018-05-27 00:10:59 UTC / 2018-05-26 20:10:59 Local
Advertisement - Login to hide

Runways

ID Width Length Bearing (true) Bearing (mag) Surface Threshold Offset Overrun Length
05 100 ft / 30 m 4,303 ft / 1,312 m 37.92° 48.93° Asphalt 335 ft / 102 m 0 ft / 0 m
17 75 ft / 23 m 3,308 ft / 1,008 m 158.10° 169.11° Asphalt 300 ft / 91 m 0 ft / 0 m
23 100 ft / 30 m 4,303 ft / 1,312 m 217.93° 228.94° Asphalt 300 ft / 91 m 0 ft / 0 m
35 75 ft / 23 m 3,308 ft / 1,008 m 338.10° 349.11° Asphalt 1,000 ft / 305 m 0 ft / 0 m

Map

Weather


0- 5 10 15 20 25 30 35+ Temperature / ° C

Clouds and Precipitation
Forecast for 2018-05-26 12:00 UTC. Updated 3 hours ago

Ground ~20,000 ft ~40,000 ft Winds

METAR

KMQI 261335Z AUTO 25008KT 10SM SCT020 26/21 A3001 RMK AO2 T02580208

TAF

Not found

Frequencies

Recorded 128.27 MHz AWOS 3
Approach 124.72 MHz NORFOLK APP/DEP
Unicom 122.80 MHz CTAF/UNICOM
Warning: Do not use this data for real-world aviation or navigation. No guarantee of current accuracy is given.